Sewanee, Tennessee
Current Conditions -  °F | °C
As of 2:35 PM on Saturday 25 Oct 2014 (Local Time) from KBGF Reporting Station
Clear Clear  
Wind Chill: 73°   Ceiling: Unl
Heat Index: 73°   Visibility: 10mi
Dew Point: 57°   Wind: 3mph
Humidity: 57%   Direction: NA
Pressure: 30.04"   Gusts: NA
Location:  35.19°N, 85.92°W
Report Text: KBGF 251935Z AUTO VRB03KT 10SM CLR 23/14 A3004 RMK
Loading
Personal Weather Stations






























Interactive Weather Map
Tropical Storm Tracking
New forecast layout! Learn more

10-Day Weather Forecast

Advertisements
Track Severe Weather on mobile